Avon, MT

11:55 AM MST on February 14, 2016 (GMT -0700)
APRSWXNET | | Change Station
CLOSE
Current Station
Personal Weather Station
Location: Lincoln, MT
Elevation: 4553 ft
Nearby Weather Stations
Active Advisory: Winter Weather Statement

Elev 4553 ft 46.95 °N, 112.69 °W | Updated 28 minutes ago

Mostly Cloudy
Mostly Cloudy
36 °F
Feels Like 36 °F
N
1
Wind Variable Wind from NE
Gusts 4.0 mph

Today
High -- | Low -- °F
--% Chance of Precip.
Yesterday
High -- | Low -- °F
Precip. -- in
Pressure 29.99 in
Visibility 10.0 miles
Clouds Few 5500 ft
Windchill 36 °F
Dew Point 32 °F
Humidity 84%
Rainfall in
Snow Depth Not available.
7:37 AM 5:53 PM
Waxing Crescent, 44% visible
METAR KHLN 141753Z 28021G31KT 10SM FEW055 08/M04 A2991 RMK AO2 PK WND 29031/1752 SLP154 T00781039 10078 20033 51007
Pressure 29.99 in
Visibility 10.0 miles
Clouds Few 5500 ft
Windchill 36 °F
Dew Point 32 °F
Humidity 84%
Rainfall in
Snow Depth Not available.
7:37 AM 5:53 PM
Waxing Crescent, 44% visible
METAR KHLN 141753Z 28021G31KT 10SM FEW055 08/M04 A2991 RMK AO2 PK WND 29031/1752 SLP154 T00781039 10078 20033 51007

10-Day Weather Forecast

Almanac

Astronomy

Feb. 14, 2016 Rise Set
Actual Time
Civil Twilight
Nautical Twilight
Astronomical Twilight
Moon
Length of Visible Light
Length of Day
Tomorrow will be .
, % of the Moon is Illuminated

Today's Extremes

State Highs State Lows

Community

WunderPhotos

Upload Photos

1,892,870 photos uploaded!

WunderBlog® & News

Nearby

Air Quality

  Air Quality AQ Index Pollutant
Not available.

Snow Depth

Station Depth Elevation

Earthquake Activity

City Distance Mag. Time & Date
Minimum magnitude displayed is 2.5.

Coastal Water Temperatures

Place Temperature

Stations

Nearby Weather Stations

Station Location Temp. Windchill Dew Point Humidity Wind Precip. Elev Updated Type
                   

Watches & Warnings

Winter Weather Statement
Issued: 11:51 AM MST Feb. 14, 2016 – National Weather Service

... Winter Weather Advisory is cancelled...

The National Weather Service in Missoula has cancelled the Winter
Weather Advisory.

Light snow has largely ended across the area, though roads will
remain slick locally.